sensor_id;sensor_type;location;lat;lon;timestamp;temperature;humidity
38866;DHT22;62686;48.984;8.394;2023-06-14T00:00:37;13.30;99.90
38866;DHT22;62686;48.984;8.394;2023-06-14T00:03:07;13.30;99.90
38866;DHT22;62686;48.984;8.394;2023-06-14T00:05:37;13.20;99.90
38866;DHT22;62686;48.984;8.394;2023-06-14T00:08:11;13.10;99.90
38866;DHT22;62686;48.984;8.394;2023-06-14T00:10:39;13.00;99.90
38866;DHT22;62686;48.984;8.394;2023-06-14T00:13:09;13.10;99.90
38866;DHT22;62686;48.984;8.394;2023-06-14T00:15:37;13.10;99.90
38866;DHT22;62686;48.984;8.394;2023-06-14T00:18:05;13.10;99.90
38866;DHT22;62686;48.984;8.394;2023-06-14T00:20:34;13.30;99.90
38866;DHT22;62686;48.984;8.394;2023-06-14T00:23:02;13.30;99.90
38866;DHT22;62686;48.984;8.394;2023-06-14T00:25:32;13.40;99.90
38866;DHT22;62686;48.984;8.394;2023-06-14T05:06:22;22.40;90.90
38866;DHT22;62686;48.984;8.394;2023-06-14T05:08:50;22.60;90.30
38866;DHT22;62686;48.984;8.394;2023-06-14T05:11:19;22.80;90.20
38866;DHT22;62686;48.984;8.394;2023-06-14T05:13:47;22.80;89.00
38866;DHT22;62686;48.984;8.394;2023-06-14T05:16:16;23.50;89.20
38866;DHT22;62686;48.984;8.394;2023-06-14T05:18:46;23.90;87.10
38866;DHT22;62686;48.984;8.394;2023-06-14T05:21:15;24.40;86.00
38866;DHT22;62686;48.984;8.394;2023-06-14T05:23:46;24.20;83.80
38866;DHT22;62686;48.984;8.394;2023-06-14T05:26:14;24.30;83.40
38866;DHT22;62686;48.984;8.394;2023-06-14T05:28:43;23.90;83.70
38866;DHT22;62686;48.984;8.394;2023-06-14T05:31:11;24.10;81.70
38866;DHT22;62686;48.984;8.394;2023-06-14T05:33:40;24.10;82.40
38866;DHT22;62686;48.984;8.394;2023-06-14T05:36:08;23.90;82.30
38866;DHT22;62686;48.984;8.394;2023-06-14T05:38:36;23.80;82.60
38866;DHT22;62686;48.984;8.394;2023-06-14T05:41:06;24.00;82.10
38866;DHT22;62686;48.984;8.394;2023-06-14T05:43:34;24.30;79.90
38866;DHT22;62686;48.984;8.394;2023-06-14T05:46:03;24.00;80.50
38866;DHT22;62686;48.984;8.394;2023-06-14T05:48:31;24.20;82.30
38866;DHT22;62686;48.984;8.394;2023-06-14T05:51:00;24.10;81.20
38866;DHT22;62686;48.984;8.394;2023-06-14T05:53:28;24.50;82.30
38866;DHT22;62686;48.984;8.394;2023-06-14T05:55:56;24.70;79.20
38866;DHT22;62686;48.984;8.394;2023-06-14T05:58:26;24.30;80.20
38866;DHT22;62686;48.984;8.394;2023-06-14T06:00:54;24.20;79.40
38866;DHT22;62686;48.984;8.394;2023-06-14T06:03:23;24.30;80.70
38866;DHT22;62686;48.984;8.394;2023-06-14T06:05:51;24.30;80.00
38866;DHT22;62686;48.984;8.394;2023-06-14T06:08:19;24.50;78.80
38866;DHT22;62686;48.984;8.394;2023-06-14T06:10:47;24.20;80.50
38866;DHT22;62686;48.984;8.394;2023-06-14T06:13:16;24.90;79.00
38866;DHT22;62686;48.984;8.394;2023-06-14T06:15:45;25.10;78.30
38866;DHT22;62686;48.984;8.394;2023-06-14T06:18:14;25.50;78.90
38866;DHT22;62686;48.984;8.394;2023-06-14T06:20:42;25.90;79.00
38866;DHT22;62686;48.984;8.394;2023-06-14T06:23:11;26.20;77.20
38866;DHT22;62686;48.984;8.394;2023-06-14T06:25:39;25.50;75.30
38866;DHT22;62686;48.984;8.394;2023-06-14T06:28:08;25.80;76.10
38866;DHT22;62686;48.984;8.394;2023-06-14T06:30:36;26.20;74.40
38866;DHT22;62686;48.984;8.394;2023-06-14T06:33:06;26.30;74.50
38866;DHT22;62686;48.984;8.394;2023-06-14T06:35:34;26.20;74.60
38866;DHT22;62686;48.984;8.394;2023-06-14T06:38:03;26.60;75.70
38866;DHT22;62686;48.984;8.394;2023-06-14T06:40:31;26.60;72.20
38866;DHT22;62686;48.984;8.394;2023-06-14T06:42:59;26.90;73.70
38866;DHT22;62686;48.984;8.394;2023-06-14T06:45:28;27.40;73.20
38866;DHT22;62686;48.984;8.394;2023-06-14T06:47:56;27.50;71.30
38866;DHT22;62686;48.984;8.394;2023-06-14T06:50:26;27.20;71.00
38866;DHT22;62686;48.984;8.394;2023-06-14T06:52:54;26.70;70.80
38866;DHT22;62686;48.984;8.394;2023-06-14T06:55:22;26.60;72.30
38866;DHT22;62686;48.984;8.394;2023-06-14T06:57:50;26.90;72.50
38866;DHT22;62686;48.984;8.394;2023-06-14T07:00:20;27.40;74.40
38866;DHT22;62686;48.984;8.394;2023-06-14T07:02:49;27.50;72.30
38866;DHT22;62686;48.984;8.394;2023-06-14T07:05:17;28.10;70.60
38866;DHT22;62686;48.984;8.394;2023-06-14T07:07:47;28.50;69.90
38866;DHT22;62686;48.984;8.394;2023-06-14T07:10:15;29.10;70.10
38866;DHT22;62686;48.984;8.394;2023-06-14T07:12:44;28.80;69.30
38866;DHT22;62686;48.984;8.394;2023-06-14T07:15:12;28.80;68.70
38866;DHT22;62686;48.984;8.394;2023-06-14T07:17:40;28.90;68.80
38866;DHT22;62686;48.984;8.394;2023-06-14T07:20:10;28.80;68.00
38866;DHT22;62686;48.984;8.394;2023-06-14T07:22:40;29.10;67.50
38866;DHT22;62686;48.984;8.394;2023-06-14T07:25:11;29.00;66.30
38866;DHT22;62686;48.984;8.394;2023-06-14T07:27:41;28.80;68.30
38866;DHT22;62686;48.984;8.394;2023-06-14T07:30:10;29.10;66.20
38866;DHT22;62686;48.984;8.394;2023-06-14T07:32:39;28.70;67.60
38866;DHT22;62686;48.984;8.394;2023-06-14T07:35:08;29.10;66.30
38866;DHT22;62686;48.984;8.394;2023-06-14T07:37:36;29.50;66.70
38866;DHT22;62686;48.984;8.394;2023-06-14T07:40:05;29.00;66.50
38866;DHT22;62686;48.984;8.394;2023-06-14T07:42:35;29.20;65.70
38866;DHT22;62686;48.984;8.394;2023-06-14T07:45:05;29.30;66.50
38866;DHT22;62686;48.984;8.394;2023-06-14T07:47:33;30.10;65.20
38866;DHT22;62686;48.984;8.394;2023-06-14T07:50:02;29.20;65.10
38866;DHT22;62686;48.984;8.394;2023-06-14T07:52:30;29.10;66.00
38866;DHT22;62686;48.984;8.394;2023-06-14T07:54:58;29.30;67.10
38866;DHT22;62686;48.984;8.394;2023-06-14T07:57:27;28.90;67.80
38866;DHT22;62686;48.984;8.394;2023-06-14T07:59:56;29.60;66.70
38866;DHT22;62686;48.984;8.394;2023-06-14T08:02:25;30.40;65.30
38866;DHT22;62686;48.984;8.394;2023-06-14T08:04:53;30.80;61.90
38866;DHT22;62686;48.984;8.394;2023-06-14T08:07:21;30.40;60.90
38866;DHT22;62686;48.984;8.394;2023-06-14T08:09:49;30.60;63.40
38866;DHT22;62686;48.984;8.394;2023-06-14T08:12:18;30.30;63.00
38866;DHT22;62686;48.984;8.394;2023-06-14T08:14:46;29.90;63.00
38866;DHT22;62686;48.984;8.394;2023-06-14T08:17:18;30.40;62.50
38866;DHT22;62686;48.984;8.394;2023-06-14T08:19:46;30.40;61.00
38866;DHT22;62686;48.984;8.394;2023-06-14T08:22:14;30.70;65.50
38866;DHT22;62686;48.984;8.394;2023-06-14T08:24:43;31.20;62.90
38866;DHT22;62686;48.984;8.394;2023-06-14T08:27:12;31.00;61.50
38866;DHT22;62686;48.984;8.394;2023-06-14T08:29:40;31.00;61.50
38866;DHT22;62686;48.984;8.394;2023-06-14T08:32:08;31.20;61.60
38866;DHT22;62686;48.984;8.394;2023-06-14T08:34:38;31.40;60.50
38866;DHT22;62686;48.984;8.394;2023-06-14T08:37:08;32.40;62.60
38866;DHT22;62686;48.984;8.394;2023-06-14T08:39:36;32.40;60.70
38866;DHT22;62686;48.984;8.394;2023-06-14T08:42:06;32.80;60.70
38866;DHT22;62686;48.984;8.394;2023-06-14T08:44:38;32.20;59.20
38866;DHT22;62686;48.984;8.394;2023-06-14T08:47:07;32.30;58.70
38866;DHT22;62686;48.984;8.394;2023-06-14T08:49:38;32.50;59.30
38866;DHT22;62686;48.984;8.394;2023-06-14T08:52:09;32.20;59.20
38866;DHT22;62686;48.984;8.394;2023-06-14T08:54:41;31.60;59.90
38866;DHT22;62686;48.984;8.394;2023-06-14T08:57:11;31.80;59.50
38866;DHT22;62686;48.984;8.394;2023-06-14T08:59:47;32.00;60.90
38866;DHT22;62686;48.984;8.394;2023-06-14T09:02:19;32.70;58.90
38866;DHT22;62686;48.984;8.394;2023-06-14T09:04:50;33.30;59.10
38866;DHT22;62686;48.984;8.394;2023-06-14T09:07:18;33.30;57.70
38866;DHT22;62686;48.984;8.394;2023-06-14T09:09:47;32.40;57.20
38866;DHT22;62686;48.984;8.394;2023-06-14T09:12:28;32.80;57.40
38866;DHT22;62686;48.984;8.394;2023-06-14T09:14:58;32.20;56.30
38866;DHT22;62686;48.984;8.394;2023-06-14T09:17:26;32.00;58.80
38866;DHT22;62686;48.984;8.394;2023-06-14T09:19:56;32.40;58.10
38866;DHT22;62686;48.984;8.394;2023-06-14T09:22:25;32.70;57.40
38866;DHT22;62686;48.984;8.394;2023-06-14T09:24:54;33.30;56.60
38866;DHT22;62686;48.984;8.394;2023-06-14T09:27:22;32.80;57.10
38866;DHT22;62686;48.984;8.394;2023-06-14T09:29:50;32.30;56.90
38866;DHT22;62686;48.984;8.394;2023-06-14T09:32:19;32.90;55.50
38866;DHT22;62686;48.984;8.394;2023-06-14T09:34:48;33.10;56.20
38866;DHT22;62686;48.984;8.394;2023-06-14T09:37:31;32.90;56.10
38866;DHT22;62686;48.984;8.394;2023-06-14T09:40:00;33.50;55.10
38866;DHT22;62686;48.984;8.394;2023-06-14T09:42:28;33.70;54.60
38866;DHT22;62686;48.984;8.394;2023-06-14T09:44:56;33.80;56.60
38866;DHT22;62686;48.984;8.394;2023-06-14T09:47:25;33.50;56.10
38866;DHT22;62686;48.984;8.394;2023-06-14T09:49:53;33.80;55.80
38866;DHT22;62686;48.984;8.394;2023-06-14T09:52:23;33.40;56.00
38866;DHT22;62686;48.984;8.394;2023-06-14T09:54:55;33.20;55.00
38866;DHT22;62686;48.984;8.394;2023-06-14T09:57:25;33.10;55.10
38866;DHT22;62686;48.984;8.394;2023-06-14T09:59:57;32.80;54.50
38866;DHT22;62686;48.984;8.394;2023-06-14T10:02:28;32.20;54.60
38866;DHT22;62686;48.984;8.394;2023-06-14T10:05:03;32.20;56.50
38866;DHT22;62686;48.984;8.394;2023-06-14T10:07:43;32.30;56.20
38866;DHT22;62686;48.984;8.394;2023-06-14T10:10:14;33.10;55.60
38866;DHT22;62686;48.984;8.394;2023-06-14T10:12:42;33.30;54.80
38866;DHT22;62686;48.984;8.394;2023-06-14T10:15:17;33.60;55.00
38866;DHT22;62686;48.984;8.394;2023-06-14T10:17:52;33.50;53.60
38866;DHT22;62686;48.984;8.394;2023-06-14T10:20:30;34.10;54.00
38866;DHT22;62686;48.984;8.394;2023-06-14T10:23:03;33.60;54.20
38866;DHT22;62686;48.984;8.394;2023-06-14T10:25:37;33.50;54.20
38866;DHT22;62686;48.984;8.394;2023-06-14T10:28:16;33.20;55.20
38866;DHT22;62686;48.984;8.394;2023-06-14T10:31:07;33.40;55.70
38866;DHT22;62686;48.984;8.394;2023-06-14T10:33:38;32.90;57.50
38866;DHT22;62686;48.984;8.394;2023-06-14T10:36:25;32.40;55.40
38866;DHT22;62686;48.984;8.394;2023-06-14T10:38:59;31.50;53.80
38866;DHT22;62686;48.984;8.394;2023-06-14T10:41:29;30.50;56.50
38866;DHT22;62686;48.984;8.394;2023-06-14T10:44:37;29.30;58.50
38866;DHT22;62686;48.984;8.394;2023-06-14T10:47:07;28.40;59.50
38866;DHT22;62686;48.984;8.394;2023-06-14T10:49:38;27.60;60.80
38866;DHT22;62686;48.984;8.394;2023-06-14T10:52:10;27.60;61.60
38866;DHT22;62686;48.984;8.394;2023-06-14T10:55:10;27.40;61.60
38866;DHT22;62686;48.984;8.394;2023-06-14T10:57:42;27.10;64.00
38866;DHT22;62686;48.984;8.394;2023-06-14T11:00:17;27.30;61.80
38866;DHT22;62686;48.984;8.394;2023-06-14T11:03:07;27.60;63.00
38866;DHT22;62686;48.984;8.394;2023-06-14T11:05:49;28.00;63.40
38866;DHT22;62686;48.984;8.394;2023-06-14T11:08:44;28.10;62.20
38866;DHT22;62686;48.984;8.394;2023-06-14T11:11:18;27.90;61.20
38866;DHT22;62686;48.984;8.394;2023-06-14T11:13:51;28.20;63.80
38866;DHT22;62686;48.984;8.394;2023-06-14T11:16:20;29.70;60.40
38866;DHT22;62686;48.984;8.394;2023-06-14T11:18:49;31.00;57.00
38866;DHT22;62686;48.984;8.394;2023-06-14T11:21:17;33.20;54.40
38866;DHT22;62686;48.984;8.394;2023-06-14T11:23:49;34.70;53.40
38866;DHT22;62686;48.984;8.394;2023-06-14T11:26:25;35.60;50.00
38866;DHT22;62686;48.984;8.394;2023-06-14T11:29:00;36.00;50.40
38866;DHT22;62686;48.984;8.394;2023-06-14T11:31:29;35.90;48.90
38866;DHT22;62686;48.984;8.394;2023-06-14T11:33:58;36.30;52.10
38866;DHT22;62686;48.984;8.394;2023-06-14T11:36:27;36.30;49.90
38866;DHT22;62686;48.984;8.394;2023-06-14T11:39:00;35.70;51.60
38866;DHT22;62686;48.984;8.394;2023-06-14T11:41:35;34.20;53.40
38866;DHT22;62686;48.984;8.394;2023-06-14T11:44:06;34.50;51.50
38866;DHT22;62686;48.984;8.394;2023-06-14T11:46:34;35.70;51.50
38866;DHT22;62686;48.984;8.394;2023-06-14T11:49:03;35.50;51.70
38866;DHT22;62686;48.984;8.394;2023-06-14T11:51:32;33.40;52.90
38866;DHT22;62686;48.984;8.394;2023-06-14T11:54:01;31.50;55.10
38866;DHT22;62686;48.984;8.394;2023-06-14T11:56:31;30.10;57.00
38866;DHT22;62686;48.984;8.394;2023-06-14T11:59:01;28.90;59.10
38866;DHT22;62686;48.984;8.394;2023-06-14T12:01:36;30.10;61.60
38866;DHT22;62686;48.984;8.394;2023-06-14T12:04:05;32.50;56.40
38866;DHT22;62686;48.984;8.394;2023-06-14T12:06:33;32.20;54.50
38866;DHT22;62686;48.984;8.394;2023-06-14T12:09:04;30.80;56.20
38866;DHT22;62686;48.984;8.394;2023-06-14T12:11:35;30.10;58.40
38866;DHT22;62686;48.984;8.394;2023-06-14T12:14:04;29.70;58.30
38866;DHT22;62686;48.984;8.394;2023-06-14T12:16:36;30.70;59.70
38866;DHT22;62686;48.984;8.394;2023-06-14T12:19:11;32.50;57.20
38866;DHT22;62686;48.984;8.394;2023-06-14T12:21:40;34.50;55.00
38866;DHT22;62686;48.984;8.394;2023-06-14T12:24:09;34.60;52.80
38866;DHT22;62686;48.984;8.394;2023-06-14T12:26:40;35.40;53.10
38866;DHT22;62686;48.984;8.394;2023-06-14T12:29:08;36.20;52.50
38866;DHT22;62686;48.984;8.394;2023-06-14T12:31:41;36.60;50.60
38866;DHT22;62686;48.984;8.394;2023-06-14T12:34:09;36.60;51.40
38866;DHT22;62686;48.984;8.394;2023-06-14T12:36:38;36.40;50.30
38866;DHT22;62686;48.984;8.394;2023-06-14T12:39:11;37.40;49.50
38866;DHT22;62686;48.984;8.394;2023-06-14T12:41:39;37.20;49.80
38866;DHT22;62686;48.984;8.394;2023-06-14T12:44:09;37.20;48.80
38866;DHT22;62686;48.984;8.394;2023-06-14T12:46:38;35.60;49.30
38866;DHT22;62686;48.984;8.394;2023-06-14T12:49:09;34.30;50.10
38866;DHT22;62686;48.984;8.394;2023-06-14T12:51:39;33.20;52.80
38866;DHT22;62686;48.984;8.394;2023-06-14T12:54:08;32.60;54.80
38866;DHT22;62686;48.984;8.394;2023-06-14T12:56:36;31.70;55.10
38866;DHT22;62686;48.984;8.394;2023-06-14T12:59:04;30.40;56.50
38866;DHT22;62686;48.984;8.394;2023-06-14T13:01:33;29.70;57.10
38866;DHT22;62686;48.984;8.394;2023-06-14T13:04:01;29.30;57.60
38866;DHT22;62686;48.984;8.394;2023-06-14T13:06:30;28.70;59.60
38866;DHT22;62686;48.984;8.394;2023-06-14T13:08:59;28.40;59.50
38866;DHT22;62686;48.984;8.394;2023-06-14T13:11:28;29.20;60.00
38866;DHT22;62686;48.984;8.394;2023-06-14T13:13:57;29.40;58.00
38866;DHT22;62686;48.984;8.394;2023-06-14T13:16:25;30.80;58.30
38866;DHT22;62686;48.984;8.394;2023-06-14T13:18:54;32.60;55.90
38866;DHT22;62686;48.984;8.394;2023-06-14T13:21:22;32.80;55.00
38866;DHT22;62686;48.984;8.394;2023-06-14T13:23:51;33.30;52.80
38866;DHT22;62686;48.984;8.394;2023-06-14T13:26:20;34.10;51.90
38866;DHT22;62686;48.984;8.394;2023-06-14T13:28:49;34.90;53.80
38866;DHT22;62686;48.984;8.394;2023-06-14T13:31:18;35.80;51.10
38866;DHT22;62686;48.984;8.394;2023-06-14T13:33:46;36.40;50.20
38866;DHT22;62686;48.984;8.394;2023-06-14T13:36:14;36.70;50.10
38866;DHT22;62686;48.984;8.394;2023-06-14T13:38:43;36.30;49.70
38866;DHT22;62686;48.984;8.394;2023-06-14T13:41:13;36.20;50.80
38866;DHT22;62686;48.984;8.394;2023-06-14T13:43:42;35.30;50.30
38866;DHT22;62686;48.984;8.394;2023-06-14T13:46:10;34.90;51.00
38866;DHT22;62686;48.984;8.394;2023-06-14T13:48:38;35.40;51.80
38866;DHT22;62686;48.984;8.394;2023-06-14T13:51:07;35.00;50.20
38866;DHT22;62686;48.984;8.394;2023-06-14T13:53:35;35.30;49.50
38866;DHT22;62686;48.984;8.394;2023-06-14T13:56:03;35.30;49.60
38866;DHT22;62686;48.984;8.394;2023-06-14T13:58:33;35.70;49.60
38866;DHT22;62686;48.984;8.394;2023-06-14T14:01:01;35.60;50.40
38866;DHT22;62686;48.984;8.394;2023-06-14T14:03:29;35.50;49.90
38866;DHT22;62686;48.984;8.394;2023-06-14T14:05:59;36.10;48.50
38866;DHT22;62686;48.984;8.394;2023-06-14T14:08:28;35.80;48.20
38866;DHT22;62686;48.984;8.394;2023-06-14T14:10:56;35.50;49.20
38866;DHT22;62686;48.984;8.394;2023-06-14T14:13:24;35.70;49.70
38866;DHT22;62686;48.984;8.394;2023-06-14T14:15:54;36.00;46.80
38866;DHT22;62686;48.984;8.394;2023-06-14T14:18:22;36.00;46.10
38866;DHT22;62686;48.984;8.394;2023-06-14T14:20:51;35.30;46.40
38866;DHT22;62686;48.984;8.394;2023-06-14T14:23:19;34.60;48.50
38866;DHT22;62686;48.984;8.394;2023-06-14T14:25:48;35.50;48.70
38866;DHT22;62686;48.984;8.394;2023-06-14T14:28:17;34.60;49.00
38866;DHT22;62686;48.984;8.394;2023-06-14T14:30:47;34.80;48.80
38866;DHT22;62686;48.984;8.394;2023-06-14T14:33:17;35.00;48.30
38866;DHT22;62686;48.984;8.394;2023-06-14T14:35:46;35.00;48.20
38866;DHT22;62686;48.984;8.394;2023-06-14T14:38:14;34.50;48.60
38866;DHT22;62686;48.984;8.394;2023-06-14T14:40:44;33.70;48.60
38866;DHT22;62686;48.984;8.394;2023-06-14T14:43:12;33.30;48.90
38866;DHT22;62686;48.984;8.394;2023-06-14T14:45:41;32.90;49.10
38866;DHT22;62686;48.984;8.394;2023-06-14T14:48:09;32.20;50.50
38866;DHT22;62686;48.984;8.394;2023-06-14T14:50:39;32.40;49.80
38866;DHT22;62686;48.984;8.394;2023-06-14T14:53:07;32.60;49.30
38866;DHT22;62686;48.984;8.394;2023-06-14T14:55:35;33.10;49.80
38866;DHT22;62686;48.984;8.394;2023-06-14T14:58:04;33.30;48.90
38866;DHT22;62686;48.984;8.394;2023-06-14T15:00:33;32.80;49.80
38866;DHT22;62686;48.984;8.394;2023-06-14T15:03:02;33.10;49.70
38866;DHT22;62686;48.984;8.394;2023-06-14T15:05:30;33.20;49.50
38866;DHT22;62686;48.984;8.394;2023-06-14T15:08:00;33.70;49.40
38866;DHT22;62686;48.984;8.394;2023-06-14T15:10:28;33.30;48.90
38866;DHT22;62686;48.984;8.394;2023-06-14T15:12:56;32.10;48.80
38866;DHT22;62686;48.984;8.394;2023-06-14T15:15:25;31.10;50.70
38866;DHT22;62686;48.984;8.394;2023-06-14T15:17:53;30.10;52.90
38866;DHT22;62686;48.984;8.394;2023-06-14T15:20:21;29.50;54.30
38866;DHT22;62686;48.984;8.394;2023-06-14T15:22:49;29.70;56.10
38866;DHT22;62686;48.984;8.394;2023-06-14T15:25:19;29.80;54.10
38866;DHT22;62686;48.984;8.394;2023-06-14T15:27:48;30.20;52.80
38866;DHT22;62686;48.984;8.394;2023-06-14T15:30:16;30.60;52.60
38866;DHT22;62686;48.984;8.394;2023-06-14T15:32:44;30.90;52.30
38866;DHT22;62686;48.984;8.394;2023-06-14T15:35:13;31.10;52.10
38866;DHT22;62686;48.984;8.394;2023-06-14T15:37:41;31.50;51.70
38866;DHT22;62686;48.984;8.394;2023-06-14T15:40:10;31.30;50.60
38866;DHT22;62686;48.984;8.394;2023-06-14T15:42:40;31.50;52.90
38866;DHT22;62686;48.984;8.394;2023-06-14T15:45:09;31.50;51.50
38866;DHT22;62686;48.984;8.394;2023-06-14T15:47:37;30.10;51.60
38866;DHT22;62686;48.984;8.394;2023-06-14T15:50:06;29.50;53.00
38866;DHT22;62686;48.984;8.394;2023-06-14T15:52:35;30.00;54.20
38866;DHT22;62686;48.984;8.394;2023-06-14T15:55:04;30.10;53.70
38866;DHT22;62686;48.984;8.394;2023-06-14T15:57:32;29.80;53.80
38866;DHT22;62686;48.984;8.394;2023-06-14T16:00:04;29.90;54.00
38866;DHT22;62686;48.984;8.394;2023-06-14T16:02:33;30.30;53.50
38866;DHT22;62686;48.984;8.394;2023-06-14T16:05:01;30.30;53.90
38866;DHT22;62686;48.984;8.394;2023-06-14T16:07:29;30.00;52.40
38866;DHT22;62686;48.984;8.394;2023-06-14T16:09:58;30.20;52.90
38866;DHT22;62686;48.984;8.394;2023-06-14T16:12:26;30.30;53.00
38866;DHT22;62686;48.984;8.394;2023-06-14T16:14:54;30.00;52.60
38866;DHT22;62686;48.984;8.394;2023-06-14T16:17:24;30.30;53.30
38866;DHT22;62686;48.984;8.394;2023-06-14T16:19:53;30.10;52.70
38866;DHT22;62686;48.984;8.394;2023-06-14T16:22:22;30.50;52.80
38866;DHT22;62686;48.984;8.394;2023-06-14T16:24:50;30.70;53.20
38866;DHT22;62686;48.984;8.394;2023-06-14T16:27:18;30.40;52.70
38866;DHT22;62686;48.984;8.394;2023-06-14T16:29:47;30.20;52.00
38866;DHT22;62686;48.984;8.394;2023-06-14T16:32:15;29.80;53.10
38866;DHT22;62686;48.984;8.394;2023-06-14T16:34:45;29.60;53.40
38866;DHT22;62686;48.984;8.394;2023-06-14T16:37:14;29.40;55.00
38866;DHT22;62686;48.984;8.394;2023-06-14T16:39:42;29.20;55.80
38866;DHT22;62686;48.984;8.394;2023-06-14T16:42:10;29.20;55.20
38866;DHT22;62686;48.984;8.394;2023-06-14T16:44:39;29.40;55.30
38866;DHT22;62686;48.984;8.394;2023-06-14T16:47:07;29.40;54.40
38866;DHT22;62686;48.984;8.394;2023-06-14T16:49:37;29.30;55.30
38866;DHT22;62686;48.984;8.394;2023-06-14T16:52:07;29.30;55.10
38866;DHT22;62686;48.984;8.394;2023-06-14T16:54:35;28.80;54.00
38866;DHT22;62686;48.984;8.394;2023-06-14T16:57:04;28.50;54.90
38866;DHT22;62686;48.984;8.394;2023-06-14T16:59:32;28.00;56.40
38866;DHT22;62686;48.984;8.394;2023-06-14T17:02:02;27.80;55.50
38866;DHT22;62686;48.984;8.394;2023-06-14T17:04:32;27.70;57.30
38866;DHT22;62686;48.984;8.394;2023-06-14T17:07:00;27.80;56.00
38866;DHT22;62686;48.984;8.394;2023-06-14T17:09:32;28.20;56.90
38866;DHT22;62686;48.984;8.394;2023-06-14T17:12:00;28.40;56.00
38866;DHT22;62686;48.984;8.394;2023-06-14T17:14:29;28.20;55.50
38866;DHT22;62686;48.984;8.394;2023-06-14T17:16:57;28.50;56.30
38866;DHT22;62686;48.984;8.394;2023-06-14T17:19:25;28.40;57.10
38866;DHT22;62686;48.984;8.394;2023-06-14T17:21:54;28.10;55.90
38866;DHT22;62686;48.984;8.394;2023-06-14T17:24:22;28.00;56.70
38866;DHT22;62686;48.984;8.394;2023-06-14T17:26:52;27.90;56.30
38866;DHT22;62686;48.984;8.394;2023-06-14T17:29:21;28.10;56.90
38866;DHT22;62686;48.984;8.394;2023-06-14T17:31:50;28.10;58.30
38866;DHT22;62686;48.984;8.394;2023-06-14T17:34:18;27.90;56.80
38866;DHT22;62686;48.984;8.394;2023-06-14T17:36:47;27.60;57.30
38866;DHT22;62686;48.984;8.394;2023-06-14T17:39:17;27.30;60.30
38866;DHT22;62686;48.984;8.394;2023-06-14T17:41:45;27.00;59.80
38866;DHT22;62686;48.984;8.394;2023-06-14T17:44:15;26.70;60.00
38866;DHT22;62686;48.984;8.394;2023-06-14T17:46:43;26.10;60.30
38866;DHT22;62686;48.984;8.394;2023-06-14T17:49:12;25.40;62.20
38866;DHT22;62686;48.984;8.394;2023-06-14T17:51:40;25.00;65.30
38866;DHT22;62686;48.984;8.394;2023-06-14T17:54:08;24.70;66.70
38866;DHT22;62686;48.984;8.394;2023-06-14T17:56:37;24.30;67.70
38866;DHT22;62686;48.984;8.394;2023-06-14T17:59:05;24.10;66.80
38866;DHT22;62686;48.984;8.394;2023-06-14T18:01:35;23.90;68.00
38866;DHT22;62686;48.984;8.394;2023-06-14T18:04:03;23.70;67.80
38866;DHT22;62686;48.984;8.394;2023-06-14T18:06:31;23.50;68.30
38866;DHT22;62686;48.984;8.394;2023-06-14T18:09:00;23.30;68.80
38866;DHT22;62686;48.984;8.394;2023-06-14T18:11:28;23.20;69.50
38866;DHT22;62686;48.984;8.394;2023-06-14T18:13:59;23.10;71.20
38866;DHT22;62686;48.984;8.394;2023-06-14T18:16:27;23.00;71.60
38866;DHT22;62686;48.984;8.394;2023-06-14T18:18:57;22.90;70.00
38866;DHT22;62686;48.984;8.394;2023-06-14T18:21:26;22.80;73.10
38866;DHT22;62686;48.984;8.394;2023-06-14T18:23:54;22.70;71.60
38866;DHT22;62686;48.984;8.394;2023-06-14T18:26:25;22.60;71.70
38866;DHT22;62686;48.984;8.394;2023-06-14T18:28:54;22.60;71.00
38866;DHT22;62686;48.984;8.394;2023-06-14T18:31:23;22.50;71.30
38866;DHT22;62686;48.984;8.394;2023-06-14T18:33:51;22.40;72.20
38866;DHT22;62686;48.984;8.394;2023-06-14T18:36:21;22.30;72.50
38866;DHT22;62686;48.984;8.394;2023-06-14T18:38:49;22.20;72.40
38866;DHT22;62686;48.984;8.394;2023-06-14T18:41:17;22.10;74.20
38866;DHT22;62686;48.984;8.394;2023-06-14T18:43:46;22.00;72.80
38866;DHT22;62686;48.984;8.394;2023-06-14T18:46:14;21.90;73.60
38866;DHT22;62686;48.984;8.394;2023-06-14T18:48:42;21.90;74.30
38866;DHT22;62686;48.984;8.394;2023-06-14T18:51:11;21.80;73.40
38866;DHT22;62686;48.984;8.394;2023-06-14T18:53:41;21.70;73.50
38866;DHT22;62686;48.984;8.394;2023-06-14T18:56:10;21.60;75.10
38866;DHT22;62686;48.984;8.394;2023-06-14T18:58:39;21.50;76.30
38866;DHT22;62686;48.984;8.394;2023-06-14T19:01:07;21.40;75.00
38866;DHT22;62686;48.984;8.394;2023-06-14T19:03:35;21.30;75.30
38866;DHT22;62686;48.984;8.394;2023-06-14T19:06:04;21.30;75.30
38866;DHT22;62686;48.984;8.394;2023-06-14T19:08:32;21.30;75.40
38866;DHT22;62686;48.984;8.394;2023-06-14T19:11:03;21.20;74.90
38866;DHT22;62686;48.984;8.394;2023-06-14T19:13:33;21.20;75.70
38866;DHT22;62686;48.984;8.394;2023-06-14T19:16:02;21.10;75.70
38866;DHT22;62686;48.984;8.394;2023-06-14T19:18:30;21.00;77.20
38866;DHT22;62686;48.984;8.394;2023-06-14T19:20:59;20.90;77.00
38866;DHT22;62686;48.984;8.394;2023-06-14T19:23:27;20.80;76.90
38866;DHT22;62686;48.984;8.394;2023-06-14T19:25:55;20.70;78.20
38866;DHT22;62686;48.984;8.394;2023-06-14T19:28:25;20.60;77.30
38866;DHT22;62686;48.984;8.394;2023-06-14T19:30:54;20.50;77.90
38866;DHT22;62686;48.984;8.394;2023-06-14T19:33:22;20.30;78.30
38866;DHT22;62686;48.984;8.394;2023-06-14T19:35:51;20.20;79.30
38866;DHT22;62686;48.984;8.394;2023-06-14T19:38:19;20.10;80.50
38866;DHT22;62686;48.984;8.394;2023-06-14T19:40:48;19.90;80.80
38866;DHT22;62686;48.984;8.394;2023-06-14T19:43:16;19.80;83.00
38866;DHT22;62686;48.984;8.394;2023-06-14T19:45:45;19.70;83.30
38866;DHT22;62686;48.984;8.394;2023-06-14T19:48:14;19.60;83.40
38866;DHT22;62686;48.984;8.394;2023-06-14T19:50:45;19.50;83.00
38866;DHT22;62686;48.984;8.394;2023-06-14T19:53:14;19.40;84.60
38866;DHT22;62686;48.984;8.394;2023-06-14T19:55:42;19.30;83.70
38866;DHT22;62686;48.984;8.394;2023-06-14T19:58:10;19.20;86.40
38866;DHT22;62686;48.984;8.394;2023-06-14T20:00:39;19.10;87.50
38866;DHT22;62686;48.984;8.394;2023-06-14T20:03:08;18.90;87.20
38866;DHT22;62686;48.984;8.394;2023-06-14T20:05:38;18.90;86.70
38866;DHT22;62686;48.984;8.394;2023-06-14T20:08:08;18.80;86.60
38866;DHT22;62686;48.984;8.394;2023-06-14T20:10:36;18.70;86.50
38866;DHT22;62686;48.984;8.394;2023-06-14T20:13:05;18.70;88.20
38866;DHT22;62686;48.984;8.394;2023-06-14T20:15:34;18.60;88.30
38866;DHT22;62686;48.984;8.394;2023-06-14T20:18:03;18.50;88.00
38866;DHT22;62686;48.984;8.394;2023-06-14T20:20:32;18.40;89.00
38866;DHT22;62686;48.984;8.394;2023-06-14T20:23:01;18.30;90.00